Time;durP1;ratioP1;P1;durP2;ratioP2;P2;SDS_P1;SDS_P2;PMS_P1;PMS_P2;Temp;Humidity;BMP_temperature;BMP_pressure;BME280_temperature;BME280_humidity;BME280_pressure;Samples;Min_cycle;Max_cycle;Signal;HPM_P1;HPM_P2
2023/07/29 00:00:16;;;;;;;5.67;3.90;;;16.60;99.90;;;;;;5042675;28;20278;-79
2023/07/29 00:02:46;;;;;;;6.47;3.73;;;16.60;99.90;;;;;;5047730;28;20256;-76
2023/07/29 00:05:15;;;;;;;4.37;3.93;;;16.60;99.90;;;;;;5033441;28;20244;-74
2023/07/29 00:07:43;;;;;;;5.47;3.70;;;16.60;99.90;;;;;;5033234;28;20675;-76
2023/07/29 00:10:11;;;;;;;5.00;3.90;;;16.60;99.90;;;;;;5033516;28;20209;-76
2023/07/29 00:12:39;;;;;;;5.20;4.10;;;16.50;99.90;;;;;;5032686;28;20295;-77
2023/07/29 00:15:08;;;;;;;6.10;4.20;;;16.50;99.90;;;;;;5033206;28;20215;-77
2023/07/29 00:17:36;;;;;;;7.17;4.07;;;16.50;99.90;;;;;;5033410;28;20235;-78
2023/07/29 00:20:08;;;;;;;4.63;3.90;;;16.50;99.90;;;;;;5033093;28;20223;-80
2023/07/29 00:22:36;;;;;;;7.30;4.23;;;16.50;99.90;;;;;;5032828;28;20304;-77
2023/07/29 00:25:04;;;;;;;6.43;4.30;;;16.50;99.90;;;;;;5032575;28;20655;-75
2023/07/29 00:27:32;;;;;;;4.67;3.93;;;16.50;99.90;;;;;;5033173;28;20211;-75
2023/07/29 00:30:00;;;;;;;4.80;3.93;;;16.40;99.90;;;;;;5044794;28;20726;-74
2023/07/29 00:32:30;;;;;;;5.30;4.27;;;16.40;99.90;;;;;;5052441;28;20220;-76
2023/07/29 00:35:00;;;;;;;4.77;4.20;;;16.40;99.90;;;;;;5052837;28;20235;-76
2023/07/29 00:37:31;;;;;;;6.27;4.33;;;16.30;99.90;;;;;;5040769;28;20588;-76
2023/07/29 00:39:59;;;;;;;4.23;3.70;;;16.30;99.90;;;;;;5032608;28;20256;-74
2023/07/29 00:42:27;;;;;;;5.20;4.27;;;16.30;99.90;;;;;;5032321;28;20620;-76
2023/07/29 00:44:55;;;;;;;6.47;3.97;;;16.20;99.90;;;;;;5032112;28;20753;-76
2023/07/29 00:47:24;;;;;;;5.57;4.37;;;16.20;99.90;;;;;;5032486;28;20299;-76
2023/07/29 00:49:52;;;;;;;5.43;3.90;;;16.20;99.90;;;;;;5032563;28;20204;-76
2023/07/29 00:52:21;;;;;;;4.63;3.87;;;16.20;99.90;;;;;;5032042;28;20742;-76
2023/07/29 00:54:50;;;;;;;4.80;4.10;;;16.20;99.90;;;;;;5032330;28;20212;-76
2023/07/29 00:57:20;;;;;;;8.50;4.43;;;16.20;99.90;;;;;;5032400;28;20213;-75
2023/07/29 00:59:48;;;;;;;5.07;4.07;;;16.10;99.90;;;;;;5048246;28;20219;-76
2023/07/29 01:02:16;;;;;;;9.97;4.27;;;16.10;99.90;;;;;;5051553;28;20212;-75
2023/07/29 01:04:44;;;;;;;5.47;3.97;;;16.10;99.90;;;;;;5046317;28;20279;-76
2023/07/29 01:07:20;;;;;;;6.50;4.10;;;16.10;99.90;;;;;;5032184;28;20216;-76
2023/07/29 01:09:58;;;;;;;5.80;4.23;;;16.00;99.90;;;;;;5015014;28;20223;-75
2023/07/29 01:12:35;;;;;;;7.90;3.90;;;16.00;99.90;;;;;;5031631;28;20296;-76
2023/07/29 01:15:10;;;;;;;7.13;4.10;;;15.90;99.90;;;;;;5032294;28;20259;-77
2023/07/29 01:17:44;;;;;;;5.30;3.77;;;15.90;99.90;;;;;;5032607;28;20410;-77
2023/07/29 01:20:15;;;;;;;4.97;3.87;;;15.90;99.90;;;;;;5032056;28;20215;-75
2023/07/29 01:22:44;;;;;;;5.80;3.90;;;15.80;99.90;;;;;;5031977;28;20204;-75
2023/07/29 01:25:13;;;;;;;5.50;4.53;;;15.80;99.90;;;;;;5031678;28;20248;-75
2023/07/29 01:27:43;;;;;;;5.33;4.10;;;15.70;99.90;;;;;;5033432;28;20212;-75
2023/07/29 01:30:11;;;;;;;7.10;4.07;;;15.70;99.90;;;;;;5051889;28;20227;-77
2023/07/29 01:32:50;;;;;;;5.70;3.97;;;15.60;99.90;;;;;;5051866;28;20250;-76
2023/07/29 01:35:24;;;;;;;8.00;4.13;;;15.60;99.90;;;;;;5051885;28;20203;-75
2023/07/29 01:37:56;;;;;;;6.07;4.17;;;15.60;99.90;;;;;;5042254;28;20295;-76
2023/07/29 01:40:27;;;;;;;5.20;4.13;;;15.50;99.90;;;;;;5032057;28;20197;-76
2023/07/29 01:42:56;;;;;;;5.20;4.00;;;15.40;99.90;;;;;;5031448;28;20556;-75
2023/07/29 01:45:25;;;;;;;6.20;4.20;;;15.40;99.90;;;;;;5031376;28;20694;-76
2023/07/29 01:47:53;;;;;;;6.67;4.30;;;15.30;99.90;;;;;;5032025;28;20211;-76
2023/07/29 01:50:22;;;;;;;6.80;3.83;;;15.30;99.90;;;;;;5031867;28;20212;-76
2023/07/29 01:52:50;;;;;;;9.03;4.27;;;15.20;99.90;;;;;;5031622;28;20213;-76
2023/07/29 01:55:18;;;;;;;7.03;4.37;;;15.20;99.90;;;;;;5031870;28;20631;-75
2023/07/29 01:57:47;;;;;;;5.47;4.17;;;15.20;99.90;;;;;;5043092;28;20287;-76
2023/07/29 02:00:16;;;;;;;8.87;4.50;;;15.10;99.90;;;;;;5051728;28;20215;-76
2023/07/29 02:02:44;;;;;;;7.17;4.33;;;15.10;99.90;;;;;;5051203;28;20208;-77
2023/07/29 02:05:12;;;;;;;5.87;4.20;;;15.10;99.90;;;;;;5038015;28;20225;-75
2023/07/29 02:07:40;;;;;;;5.13;4.10;;;15.10;99.90;;;;;;5031613;28;20636;-76
2023/07/29 02:10:09;;;;;;;5.53;4.13;;;15.00;99.90;;;;;;5031553;28;20549;-76
2023/07/29 02:12:37;;;;;;;4.23;3.60;;;15.00;99.90;;;;;;5033992;28;20266;-75
2023/07/29 02:15:09;;;;;;;7.73;4.30;;;15.00;99.90;;;;;;5051506;28;20208;-75
2023/07/29 02:17:37;;;;;;;7.00;4.13;;;15.00;99.90;;;;;;5054158;28;20192;-76
2023/07/29 02:20:06;;;;;;;10.00;4.57;;;15.00;99.90;;;;;;5055258;28;20204;-75
2023/07/29 02:22:35;;;;;;;7.03;3.93;;;15.00;99.90;;;;;;5040243;28;20213;-76
2023/07/29 02:25:04;;;;;;;5.93;3.97;;;14.90;99.90;;;;;;5035521;28;20314;-75
2023/07/29 02:27:33;;;;;;;4.67;3.87;;;14.90;99.90;;;;;;5035508;28;20213;-76
2023/07/29 02:30:01;;;;;;;5.70;3.97;;;14.90;99.90;;;;;;5034834;28;20219;-76
2023/07/29 02:32:30;;;;;;;5.43;3.70;;;14.90;99.90;;;;;;5035030;28;20300;-76
2023/07/29 02:34:59;;;;;;;5.93;4.23;;;14.90;99.90;;;;;;5035188;28;20276;-75
2023/07/29 02:37:27;;;;;;;5.53;3.90;;;14.90;99.90;;;;;;5035311;28;20208;-76
2023/07/29 02:39:55;;;;;;;6.20;3.67;;;14.80;99.90;;;;;;5034966;28;20776;-76
2023/07/29 02:42:23;;;;;;;5.70;3.50;;;14.80;99.90;;;;;;5034964;28;20275;-75
2023/07/29 02:44:51;;;;;;;6.40;3.60;;;14.80;99.90;;;;;;5034770;28;20228;-76
2023/07/29 02:47:19;;;;;;;5.93;3.83;;;14.80;99.90;;;;;;5036876;28;20260;-77
2023/07/29 02:49:49;;;;;;;6.67;3.57;;;14.80;99.90;;;;;;5054556;28;20213;-77
2023/07/29 02:52:17;;;;;;;3.80;3.23;;;14.70;99.90;;;;;;5054546;28;20208;-77
2023/07/29 02:54:45;;;;;;;5.47;3.77;;;14.70;99.90;;;;;;5054407;28;20215;-76
2023/07/29 02:57:14;;;;;;;6.50;3.87;;;14.70;99.90;;;;;;5049634;28;20651;-75
2023/07/29 02:59:42;;;;;;;4.57;3.67;;;14.60;99.90;;;;;;5034670;28;20216;-76
2023/07/29 03:02:11;;;;;;;6.50;4.20;;;14.60;99.90;;;;;;5034623;28;20651;-74
2023/07/29 03:04:39;;;;;;;5.90;4.00;;;14.50;99.90;;;;;;5034069;28;20742;-78
2023/07/29 03:07:08;;;;;;;5.33;3.90;;;14.50;99.90;;;;;;5034572;28;20217;-77
2023/07/29 03:09:37;;;;;;;7.30;3.77;;;14.50;99.90;;;;;;5034161;28;20296;-78
2023/07/29 03:12:06;;;;;;;5.47;4.00;;;14.50;99.90;;;;;;5033996;28;20726;-78
2023/07/29 03:14:34;;;;;;;8.23;4.20;;;14.50;99.90;;;;;;5039765;28;20216;-77
2023/07/29 03:17:04;;;;;;;6.47;4.20;;;14.50;99.90;;;;;;5054250;28;20216;-76
2023/07/29 03:19:32;;;;;;;6.13;4.23;;;14.50;99.90;;;;;;5054168;28;20212;-75
2023/07/29 03:22:00;;;;;;;6.60;4.20;;;14.50;99.90;;;;;;5053859;28;20204;-76
2023/07/29 03:24:29;;;;;;;10.50;3.93;;;14.50;99.90;;;;;;5045611;28;20229;-76
2023/07/29 03:26:57;;;;;;;5.70;4.10;;;14.50;99.90;;;;;;5034049;28;20317;-77
2023/07/29 03:29:26;;;;;;;5.37;4.23;;;14.50;99.90;;;;;;5033846;28;20213;-76
2023/07/29 03:31:54;;;;;;;5.83;3.97;;;14.40;99.90;;;;;;5033655;28;20209;-77
2023/07/29 03:34:23;;;;;;;4.83;4.33;;;14.40;99.90;;;;;;5033899;28;20213;-78
2023/07/29 03:36:51;;;;;;;7.37;4.13;;;14.40;99.90;;;;;;5034354;28;20213;-78
2023/07/29 03:39:19;;;;;;;9.83;4.50;;;14.40;99.90;;;;;;5034423;28;20321;-78
2023/07/29 03:41:49;;;;;;;8.10;4.37;;;14.40;99.90;;;;;;5050081;28;20725;-78
2023/07/29 03:44:18;;;;;;;6.67;4.37;;;14.40;99.90;;;;;;5054153;28;20239;-76
2023/07/29 03:46:46;;;;;;;5.53;3.73;;;14.40;99.90;;;;;;5053862;28;20223;-76
2023/07/29 03:49:14;;;;;;;5.27;4.03;;;14.40;99.90;;;;;;5048070;28;20209;-77
2023/07/29 03:51:42;;;;;;;7.20;4.37;;;14.50;99.90;;;;;;5034052;28;20213;-77
2023/07/29 03:54:10;;;;;;;6.43;4.03;;;14.50;99.90;;;;;;5038661;28;20204;-76
2023/07/29 03:56:38;;;;;;;9.33;3.73;;;14.60;99.90;;;;;;5050717;28;20565;-76
2023/07/29 03:59:08;;;;;;;6.70;4.00;;;14.60;99.90;;;;;;5033610;28;20208;-77
2023/07/29 04:01:36;;;;;;;5.63;4.00;;;14.60;99.90;;;;;;5033498;28;20205;-78
2023/07/29 04:04:05;;;;;;;4.50;3.57;;;14.70;99.90;;;;;;5033352;28;20213;-76
2023/07/29 04:06:33;;;;;;;6.93;3.93;;;14.80;99.90;;;;;;5042446;28;20227;-78
2023/07/29 04:09:02;;;;;;;4.30;3.47;;;14.80;99.90;;;;;;5054469;28;20208;-77
2023/07/29 04:11:30;;;;;;;6.03;3.40;;;14.90;99.90;;;;;;5054390;28;20208;-77
2023/07/29 04:13:58;;;;;;;4.10;2.97;;;15.00;99.90;;;;;;5061097;28;20238;-77
2023/07/29 04:16:28;;;;;;;4.10;3.33;;;15.00;99.90;;;;;;5044829;28;20212;-76
2023/07/29 04:18:56;;;;;;;5.33;3.13;;;15.10;99.90;;;;;;5043123;28;20272;-78
2023/07/29 04:21:24;;;;;;;3.67;3.07;;;15.10;99.90;;;;;;5033941;28;20682;-77
2023/07/29 04:23:53;;;;;;;4.63;2.90;;;15.10;99.90;;;;;;5033271;28;20232;-76
2023/07/29 04:26:21;;;;;;;5.13;3.17;;;15.20;99.90;;;;;;5032972;28;20332;-77
2023/07/29 04:28:49;;;;;;;4.17;3.20;;;15.10;99.90;;;;;;5033193;28;20213;-76
2023/07/29 04:31:18;;;;;;;3.97;2.90;;;15.20;99.90;;;;;;5033206;28;20205;-78
2023/07/29 04:33:47;;;;;;;3.87;3.00;;;15.20;99.90;;;;;;5032444;28;20304;-78
2023/07/29 04:36:15;;;;;;;3.40;2.80;;;15.30;99.90;;;;;;5032856;28;20208;-77
2023/07/29 04:38:43;;;;;;;4.10;2.70;;;15.30;99.90;;;;;;5032489;28;20232;-77
2023/07/29 04:41:11;;;;;;;4.10;2.90;;;15.40;99.90;;;;;;5032311;28;20209;-78
2023/07/29 04:43:39;;;;;;;3.43;2.50;;;15.40;99.90;;;;;;5032608;28;20209;-78
2023/07/29 04:46:08;;;;;;;3.17;2.50;;;15.40;99.90;;;;;;5038732;28;20274;-77
2023/07/29 04:48:36;;;;;;;4.03;2.57;;;15.50;99.90;;;;;;5051855;28;20208;-78
2023/07/29 04:51:06;;;;;;;7.70;3.03;;;15.50;99.90;;;;;;5059782;28;20219;-76
2023/07/29 04:53:36;;;;;;;2.60;2.40;;;15.50;99.90;;;;;;5048427;28;20212;-76
2023/07/29 04:56:04;;;;;;;4.27;2.40;;;15.50;99.90;;;;;;5039589;28;20211;-77
2023/07/29 04:58:35;;;;;;;3.40;2.73;;;15.50;99.90;;;;;;5048262;28;20207;-75
2023/07/29 05:01:03;;;;;;;4.07;2.47;;;15.60;99.90;;;;;;5052240;28;20208;-75
2023/07/29 05:03:31;;;;;;;3.27;2.50;;;15.60;99.90;;;;;;5052306;28;20701;-75
2023/07/29 05:05:59;;;;;;;4.00;2.53;;;15.60;99.90;;;;;;5050524;28;20331;-75
2023/07/29 05:08:29;;;;;;;2.93;2.53;;;15.60;99.90;;;;;;5052512;28;20220;-76
2023/07/29 05:10:57;;;;;;;4.20;2.73;;;15.60;99.90;;;;;;5052355;28;20274;-77
2023/07/29 05:13:25;;;;;;;3.27;2.40;;;15.60;99.90;;;;;;5038421;28;20212;-76
2023/07/29 05:15:53;;;;;;;3.03;2.37;;;15.70;99.90;;;;;;5032400;28;20611;-75
2023/07/29 05:18:22;;;;;;;9.37;2.70;;;15.70;99.90;;;;;;5032536;28;20598;-74
2023/07/29 05:20:50;;;;;;;3.23;2.40;;;15.80;99.90;;;;;;5032350;28;20209;-77
2023/07/29 05:23:18;;;;;;;2.97;2.20;;;15.90;99.90;;;;;;5032291;28;20259;-76
2023/07/29 05:25:47;;;;;;;4.13;2.50;;;16.00;99.90;;;;;;5032189;28;20307;-76
2023/07/29 05:28:15;;;;;;;3.00;2.43;;;16.20;99.90;;;;;;5032064;28;20675;-76
2023/07/29 05:30:45;;;;;;;2.57;2.37;;;16.40;99.90;;;;;;5046278;28;20258;-76
2023/07/29 05:33:13;;;;;;;3.50;2.10;;;16.50;99.90;;;;;;5051987;28;20212;-77
2023/07/29 05:35:41;;;;;;;4.50;2.20;;;16.70;99.90;;;;;;5052343;28;20208;-76
2023/07/29 05:38:09;;;;;;;4.33;2.13;;;16.90;99.90;;;;;;5046912;28;20201;-76
2023/07/29 05:40:37;;;;;;;3.27;2.17;;;17.10;99.90;;;;;;5041660;28;20200;-76
2023/07/29 05:43:07;;;;;;;2.60;2.33;;;17.20;99.90;;;;;;5045668;28;20254;-78
2023/07/29 05:45:35;;;;;;;2.30;2.10;;;17.40;99.90;;;;;;5042565;28;20204;-79
2023/07/29 05:48:03;;;;;;;5.27;2.30;;;17.50;99.90;;;;;;5043017;28;20204;-76
2023/07/29 05:50:31;;;;;;;2.37;1.90;;;17.70;99.90;;;;;;5040457;28;20217;-77
2023/07/29 05:52:59;;;;;;;2.13;1.83;;;18.00;99.90;;;;;;5054207;28;20212;-77
2023/07/29 05:55:27;;;;;;;3.07;2.10;;;18.20;99.90;;;;;;5056179;28;20314;-77
2023/07/29 05:57:56;;;;;;;4.80;2.10;;;18.40;99.90;;;;;;5039792;28;20288;-77
2023/07/29 06:00:25;;;;;;;3.23;1.90;;;18.30;99.90;;;;;;5035890;28;20801;-76
2023/07/29 06:02:53;;;;;;;4.87;2.10;;;18.30;99.90;;;;;;5035926;28;20201;-75
2023/07/29 06:05:22;;;;;;;2.33;2.00;;;18.20;99.90;;;;;;5035640;28;20259;-76
2023/07/29 06:07:50;;;;;;;4.53;2.20;;;18.20;99.90;;;;;;5035344;28;20644;-76
2023/07/29 06:10:18;;;;;;;2.20;2.00;;;18.30;99.90;;;;;;5035860;28;20243;-76
2023/07/29 06:12:47;;;;;;;2.63;1.90;;;18.40;99.90;;;;;;5035295;28;20219;-75
2023/07/29 06:15:15;;;;;;;2.20;2.00;;;18.40;99.90;;;;;;5036340;28;20271;-76
2023/07/29 06:17:45;;;;;;;2.07;1.80;;;18.40;99.90;;;;;;5035564;28;20207;-76
2023/07/29 06:20:13;;;;;;;2.07;1.87;;;18.50;99.90;;;;;;5035683;28;20220;-77
2023/07/29 06:22:42;;;;;;;2.10;1.90;;;18.60;99.90;;;;;;5035413;28;20217;-77
2023/07/29 06:25:10;;;;;;;3.27;1.97;;;18.70;99.90;;;;;;5035917;28;20205;-77
2023/07/29 06:27:38;;;;;;;3.93;2.10;;;18.80;99.90;;;;;;5035755;28;20262;-77
2023/07/29 06:30:07;;;;;;;2.10;1.90;;;18.80;99.90;;;;;;5035697;28;20723;-76
2023/07/29 06:32:36;;;;;;;2.83;1.90;;;18.80;99.90;;;;;;5035070;28;20576;-77
2023/07/29 06:35:06;;;;;;;3.80;2.10;;;18.80;99.90;;;;;;5035263;28;20212;-76
2023/07/29 06:37:34;;;;;;;3.20;2.00;;;18.70;99.90;;;;;;5034985;28;20264;-78
2023/07/29 06:40:03;;;;;;;2.20;2.00;;;18.80;99.90;;;;;;5034994;28;20267;-78
2023/07/29 06:42:31;;;;;;;2.90;2.07;;;18.80;99.90;;;;;;5035353;28;20295;-76
2023/07/29 06:44:59;;;;;;;2.67;2.30;;;18.90;99.90;;;;;;5035284;28;20248;-76
2023/07/29 06:47:27;;;;;;;3.40;1.73;;;18.90;99.90;;;;;;5034844;28;20733;-77
2023/07/29 06:49:55;;;;;;;2.10;1.80;;;19.10;99.90;;;;;;5038953;28;20666;-77
2023/07/29 06:52:25;;;;;;;3.97;2.00;;;19.40;99.90;;;;;;5051163;28;20208;-77
2023/07/29 06:54:53;;;;;;;2.17;1.90;;;19.70;99.90;;;;;;5034985;28;20264;-76
2023/07/29 06:57:21;;;;;;;2.17;1.70;;;20.10;99.90;;;;;;5035077;28;20201;-77
2023/07/29 06:59:49;;;;;;;2.20;2.00;;;20.60;99.90;;;;;;5035409;28;20213;-76
2023/07/29 07:02:17;;;;;;;3.23;1.80;;;20.80;99.90;;;;;;5034025;28;20385;-77
2023/07/29 07:04:45;;;;;;;2.83;1.93;;;21.00;99.90;;;;;;5034759;28;20267;-77
2023/07/29 07:07:14;;;;;;;2.70;1.80;;;20.90;99.90;;;;;;5034847;28;20233;-75
2023/07/29 07:09:43;;;;;;;1.93;1.70;;;20.90;99.90;;;;;;5040846;28;20215;-76
2023/07/29 07:12:11;;;;;;;1.70;1.60;;;21.00;99.90;;;;;;5054583;28;20622;-75
2023/07/29 07:14:39;;;;;;;1.60;1.50;;;21.10;99.90;;;;;;5054897;28;20219;-77
2023/07/29 07:17:07;;;;;;;2.70;1.80;;;21.20;99.90;;;;;;5054556;28;20548;-77
2023/07/29 07:19:40;;;;;;;3.90;1.80;;;21.00;99.90;;;;;;5045117;28;20667;-77
2023/07/29 07:22:08;;;;;;;3.27;1.93;;;20.60;99.90;;;;;;5034080;28;20205;-77
2023/07/29 07:24:36;;;;;;;4.90;2.10;;;20.40;99.90;;;;;;5030780;28;20241;-75
2023/07/29 07:27:06;;;;;;;9.80;2.60;;;20.00;99.90;;;;;;5031636;28;20722;-83
2023/07/29 07:29:35;;;;;;;4.77;2.40;;;19.50;99.90;;;;;;5029144;28;20217;-79
2023/07/29 07:32:03;;;;;;;9.37;2.50;;;19.00;99.90;;;;;;5026766;28;20234;-76
2023/07/29 07:34:33;;;;;;;6.10;2.53;;;18.60;99.90;;;;;;5026119;28;20241;-78
2023/07/29 07:37:01;;;;;;;7.23;2.90;;;18.30;99.90;;;;;;5030039;28;20609;-78
2023/07/29 07:39:29;;;;;;;6.60;3.20;;;18.10;99.90;;;;;;5031540;28;20228;-78
2023/07/29 07:41:57;;;;;;;5.10;2.70;;;17.90;99.90;;;;;;5029120;28;20219;-80
2023/07/29 07:44:27;;;;;;;4.03;2.80;;;17.70;99.90;;;;;;5037709;28;20216;-80
2023/07/29 07:46:55;;;;;;;6.47;3.10;;;17.60;99.90;;;;;;5030852;28;20225;-79
2023/07/29 07:49:23;;;;;;;3.87;2.53;;;17.60;99.90;;;;;;5020479;28;20742;-77
2023/07/29 07:51:52;;;;;;;4.40;2.73;;;17.60;99.90;;;;;;5031027;28;20216;-76
2023/07/29 07:54:20;;;;;;;5.47;2.97;;;17.60;99.90;;;;;;5034988;28;20204;-78
2023/07/29 07:56:48;;;;;;;4.07;2.97;;;17.70;99.90;;;;;;5033873;28;20738;-77
2023/07/29 07:59:16;;;;;;;3.50;2.90;;;17.80;99.90;;;;;;5028388;28;20212;-77
2023/07/29 08:01:46;;;;;;;3.67;2.70;;;17.80;99.90;;;;;;5034383;28;20208;-79
2023/07/29 08:04:15;;;;;;;5.27;2.80;;;17.90;99.90;;;;;;5032615;28;20209;-78
2023/07/29 08:06:43;;;;;;;3.77;2.80;;;17.80;99.90;;;;;;5036542;28;20221;-78
2023/07/29 08:09:11;;;;;;;3.63;3.00;;;17.90;99.90;;;;;;5017170;28;20280;-77
2023/07/29 08:11:39;;;;;;;5.17;3.23;;;17.90;99.90;;;;;;5014989;28;20268;-76
2023/07/29 08:14:07;;;;;;;5.27;3.00;;;18.00;99.90;;;;;;5012286;28;20297;-76
2023/07/29 08:16:35;;;;;;;6.10;2.80;;;18.00;99.90;;;;;;5013789;28;20245;-76
2023/07/29 08:19:06;;;;;;;4.53;3.00;;;18.10;99.90;;;;;;5013586;28;20734;-76
2023/07/29 08:21:35;;;;;;;7.53;3.10;;;18.20;99.90;;;;;;5013469;28;20210;-75
2023/07/29 08:24:04;;;;;;;3.37;2.53;;;18.40;99.90;;;;;;5033579;28;20205;-75
2023/07/29 08:26:32;;;;;;;4.57;2.47;;;18.50;99.90;;;;;;5035531;28;20217;-76
2023/07/29 08:29:00;;;;;;;3.73;2.80;;;18.60;99.90;;;;;;5053352;28;20235;-76
2023/07/29 08:31:28;;;;;;;5.97;2.53;;;18.80;99.90;;;;;;5053240;28;20208;-77
2023/07/29 08:33:56;;;;;;;5.03;2.60;;;19.00;99.90;;;;;;5046344;28;20205;-77
2023/07/29 08:36:26;;;;;;;4.50;3.00;;;19.00;99.90;;;;;;5033021;28;20675;-77
2023/07/29 08:38:54;;;;;;;3.27;2.50;;;19.10;99.90;;;;;;5033283;28;20268;-77
2023/07/29 08:41:27;;;;;;;3.83;2.50;;;19.40;99.90;;;;;;5032913;28;20209;-76
2023/07/29 08:44:03;;;;;;;2.43;2.23;;;19.70;99.90;;;;;;5043046;28;20623;-76
2023/07/29 08:46:31;;;;;;;4.37;2.53;;;20.00;99.90;;;;;;5053092;28;20638;-76
2023/07/29 08:49:01;;;;;;;2.93;2.50;;;20.20;99.90;;;;;;5032995;28;20229;-75
2023/07/29 08:51:32;;;;;;;4.83;2.80;;;20.20;99.90;;;;;;5032952;28;20209;-76
2023/07/29 08:54:02;;;;;;;2.80;2.40;;;20.40;99.90;;;;;;5032636;28;20613;-78
2023/07/29 08:56:31;;;;;;;2.67;2.00;;;20.50;99.90;;;;;;5033156;28;20213;-76
2023/07/29 08:59:01;;;;;;;4.27;2.57;;;20.50;99.90;;;;;;5032829;28;20216;-77
2023/07/29 09:01:30;;;;;;;2.70;2.47;;;20.50;99.90;;;;;;5034869;28;20209;-78
2023/07/29 09:03:58;;;;;;;3.03;2.37;;;20.80;99.90;;;;;;5052516;28;20243;-77
2023/07/29 09:06:27;;;;;;;3.30;2.50;;;20.90;99.90;;;;;;5053330;28;20236;-75
2023/07/29 09:08:57;;;;;;;2.67;2.30;;;20.80;99.90;;;;;;5054878;28;20301;-77
2023/07/29 09:11:26;;;;;;;3.90;2.40;;;20.70;99.90;;;;;;5045943;28;20243;-79
2023/07/29 09:13:54;;;;;;;4.67;2.50;;;20.90;99.90;;;;;;5032504;28;20278;-76
2023/07/29 09:16:23;;;;;;;5.93;2.70;;;21.30;99.90;;;;;;5032636;28;20247;-76
2023/07/29 09:18:51;;;;;;;4.17;2.60;;;21.70;99.90;;;;;;5032366;28;20212;-77
2023/07/29 09:21:24;;;;;;;2.87;2.27;;;21.60;99.90;;;;;;5052141;28;20254;-77
2023/07/29 09:23:52;;;;;;;3.57;2.70;;;21.90;99.90;;;;;;5051585;28;20674;-78
2023/07/29 09:26:25;;;;;;;3.13;2.50;;;21.80;99.90;;;;;;5051859;28;20253;-73
2023/07/29 09:28:55;;;;;;;3.03;2.27;;;22.10;99.90;;;;;;5046850;28;20220;-76
2023/07/29 09:31:25;;;;;;;2.97;2.50;;;22.50;99.90;;;;;;5032241;28;20270;-75
2023/07/29 09:33:57;;;;;;;3.00;2.57;;;23.00;99.90;;;;;;5032046;28;20209;-76
2023/07/29 09:36:26;;;;;;;3.90;2.50;;;23.70;99.90;;;;;;5032201;28;20208;-75
2023/07/29 09:38:55;;;;;;;3.63;2.37;;;24.90;99.90;;;;;;5037974;28;20228;-77
2023/07/29 09:41:26;;;;;;;2.58;2.38;;;25.80;99.90;;;;;;5051672;28;20678;-77
2023/07/29 09:43:59;;;;;;;3.05;2.38;;;26.70;99.90;;;;;;5051641;28;20208;-75
2023/07/29 09:46:33;;;;;;;2.97;2.35;;;27.50;99.90;;;;;;5050242;28;20208;-75
2023/07/29 09:49:05;;;;;;;2.72;2.45;;;28.50;99.90;;;;;;5046765;28;20270;-74
2023/07/29 09:51:38;;;;;;;2.53;2.33;;;29.20;99.90;;;;;;5051757;28;20204;-75
2023/07/29 09:54:07;;;;;;;2.65;2.30;;;29.40;99.90;;;;;;5051820;28;20246;-76
2023/07/29 09:56:42;;;;;;;2.40;2.20;;;29.90;98.70;;;;;;5047371;28;20336;-74
2023/07/29 09:59:11;;;;;;;4.47;2.38;;;30.50;97.00;;;;;;5031799;28;20684;-77
2023/07/29 10:01:40;;;;;;;2.88;2.40;;;30.40;96.50;;;;;;5030905;28;20263;-76
2023/07/29 10:04:10;;;;;;;3.22;2.30;;;30.20;94.00;;;;;;5031627;28;20648;-73
2023/07/29 10:06:42;;;;;;;2.70;2.30;;;29.90;93.80;;;;;;5046354;28;20220;-78
2023/07/29 10:09:12;;;;;;;2.95;2.30;;;29.00;98.80;;;;;;5043551;28;20220;-77
2023/07/29 10:11:43;;;;;;;2.97;2.67;;;28.40;97.40;;;;;;5050477;28;20240;-77
2023/07/29 10:14:12;;;;;;;3.25;2.45;;;27.80;97.30;;;;;;5052799;28;20219;-79
2023/07/29 10:16:42;;;;;;;2.90;2.55;;;27.60;99.00;;;;;;5050560;28;20270;-77
2023/07/29 10:19:12;;;;;;;2.97;2.67;;;27.60;99.80;;;;;;5048640;28;20220;-77
2023/07/29 10:21:44;;;;;;;2.83;2.47;;;28.20;99.90;;;;;;5051601;28;20261;-80
2023/07/29 10:24:16;;;;;;;3.88;2.38;;;28.80;96.90;;;;;;5051919;28;20192;-76
2023/07/29 10:26:47;;;;;;;3.35;2.55;;;28.90;94.50;;;;;;5049462;28;20208;-77
2023/07/29 10:29:17;;;;;;;3.22;2.75;;;28.80;94.60;;;;;;5031981;28;20561;-75
2023/07/29 10:31:46;;;;;;;4.60;2.42;;;29.00;96.50;;;;;;5031917;28;20260;-79
2023/07/29 10:34:15;;;;;;;3.10;2.80;;;29.30;95.20;;;;;;5031516;28;20234;-77
2023/07/29 10:36:43;;;;;;;2.85;2.50;;;29.70;94.80;;;;;;5045032;28;20230;-75
2023/07/29 10:39:12;;;;;;;5.40;2.50;;;30.30;92.70;;;;;;5051001;28;20224;-75
2023/07/29 10:41:59;;;;;;;2.80;2.58;;;30.90;91.30;;;;;;5054752;28;20212;-76
2023/07/29 10:44:50;;;;;;;3.40;2.25;;;31.30;89.40;;;;;;5046421;28;20293;-74
2023/07/29 10:47:21;;;;;;;3.15;2.50;;;31.30;87.20;;;;;;5036624;28;20227;-75
2023/07/29 10:49:51;;;;;;;3.60;2.63;;;31.20;92.10;;;;;;5035231;28;20259;-75
2023/07/29 10:52:30;;;;;;;3.70;2.28;;;30.80;90.30;;;;;;5040739;28;20232;-76
2023/07/29 10:54:59;;;;;;;2.67;2.30;;;31.00;91.00;;;;;;5050363;28;20204;-74
2023/07/29 10:57:34;;;;;;;2.75;2.45;;;31.30;85.90;;;;;;5034583;28;20236;-75
2023/07/29 11:00:04;;;;;;;4.70;3.13;;;31.50;88.60;;;;;;5034699;28;20252;-74
2023/07/29 11:02:34;;;;;;;2.40;2.20;;;31.60;84.40;;;;;;5034724;28;20204;-76
2023/07/29 11:05:07;;;;;;;4.68;2.63;;;31.30;79.90;;;;;;5034344;28;20205;-74
2023/07/29 11:07:45;;;;;;;3.03;2.58;;;31.50;80.30;;;;;;5049981;28;20219;-74
2023/07/29 11:10:14;;;;;;;4.28;2.40;;;30.70;82.00;;;;;;5049460;28;20227;-76
2023/07/29 11:12:47;;;;;;;3.50;1.70;;;29.70;86.10;;;;;;5050447;28;20204;-76
2023/07/29 11:15:24;;;;;;;4.88;1.90;;;28.10;88.60;;;;;;5035096;28;20209;-77
2023/07/29 11:17:53;;;;;;;3.13;1.57;;;26.00;94.10;;;;;;5034751;28;20197;-77
2023/07/29 11:20:23;;;;;;;6.63;1.70;;;24.90;98.40;;;;;;5034398;28;20228;-75
2023/07/29 11:22:51;;;;;;;2.67;1.80;;;23.40;99.90;;;;;;5034135;28;20241;-77
2023/07/29 11:25:20;;;;;;;5.90;2.10;;;22.50;99.90;;;;;;5034500;28;20219;-77
2023/07/29 11:27:51;;;;;;;6.53;2.40;;;21.40;99.90;;;;;;5034158;28;20213;-78
2023/07/29 11:30:19;;;;;;;8.97;3.03;;;20.90;99.90;;;;;;5034228;28;20304;-77
2023/07/29 11:32:48;;;;;;;7.90;3.03;;;20.30;99.90;;;;;;5033806;28;20208;-75
2023/07/29 11:35:17;;;;;;;8.43;3.13;;;19.70;99.90;;;;;;5033852;28;20679;-79
2023/07/29 11:37:47;;;;;;;7.30;2.93;;;19.30;99.90;;;;;;5034098;28;20270;-77
2023/07/29 11:40:16;;;;;;;8.57;2.43;;;19.30;99.90;;;;;;5033685;28;20283;-77
2023/07/29 11:42:46;;;;;;;8.30;2.87;;;19.20;99.90;;;;;;5037148;28;20358;-79
2023/07/29 11:45:16;;;;;;;5.20;2.70;;;19.30;99.90;;;;;;5053775;28;20254;-77
2023/07/29 11:47:45;;;;;;;5.30;2.50;;;19.70;99.90;;;;;;5035042;28;20209;-78
2023/07/29 11:50:15;;;;;;;4.00;2.30;;;20.30;99.90;;;;;;5033734;28;20567;-76
2023/07/29 11:52:44;;;;;;;3.40;2.53;;;20.80;99.90;;;;;;5033999;28;20205;-78
2023/07/29 11:55:14;;;;;;;4.03;2.20;;;21.50;99.90;;;;;;5033706;28;20209;-78
2023/07/29 11:57:43;;;;;;;4.90;2.70;;;22.30;99.90;;;;;;5050662;28;20303;-77
2023/07/29 12:00:14;;;;;;;15.20;3.37;;;22.60;99.90;;;;;;5053351;28;20716;-75
2023/07/29 12:02:45;;;;;;;3.87;2.40;;;22.80;99.90;;;;;;5050403;28;20216;-78
2023/07/29 12:05:15;;;;;;;4.33;2.43;;;22.90;99.90;;;;;;5054209;28;20698;-73
2023/07/29 12:07:45;;;;;;;3.57;2.63;;;23.10;99.90;;;;;;5054172;28;20232;-78
2023/07/29 12:10:13;;;;;;;3.90;2.50;;;23.30;99.90;;;;;;5048613;28;20205;-79
2023/07/29 12:12:51;;;;;;;3.00;2.40;;;23.10;99.90;;;;;;5053265;28;20231;-77
2023/07/29 12:15:27;;;;;;;4.50;2.50;;;23.30;99.90;;;;;;5053530;28;20211;-77
2023/07/29 12:17:58;;;;;;;3.97;2.50;;;23.60;99.90;;;;;;5053225;28;20247;-77
2023/07/29 12:20:27;;;;;;;3.63;2.40;;;23.90;99.90;;;;;;5040504;28;20228;-77
2023/07/29 12:22:57;;;;;;;4.33;2.70;;;23.90;99.90;;;;;;5035467;28;20212;-76
2023/07/29 12:25:27;;;;;;;3.10;2.50;;;24.10;99.90;;;;;;5052381;28;20690;-77
2023/07/29 12:27:55;;;;;;;4.13;2.60;;;24.20;99.90;;;;;;5051528;28;20572;-77
2023/07/29 12:30:24;;;;;;;4.20;2.30;;;24.20;99.90;;;;;;5052759;28;20670;-76
2023/07/29 12:32:53;;;;;;;3.90;2.80;;;24.30;99.90;;;;;;5052859;28;20262;-78
2023/07/29 12:35:23;;;;;;;7.53;2.90;;;24.20;99.90;;;;;;5047462;28;20267;-77
2023/07/29 12:37:59;;;;;;;4.47;2.70;;;24.20;99.90;;;;;;5032991;28;20675;-78
2023/07/29 12:40:28;;;;;;;4.10;2.40;;;24.40;99.90;;;;;;5040246;28;20636;-75
2023/07/29 12:42:57;;;;;;;4.00;2.40;;;24.50;99.90;;;;;;5047996;28;20216;-76
2023/07/29 12:45:26;;;;;;;4.77;2.60;;;24.90;99.90;;;;;;5032738;28;20244;-76
2023/07/29 12:47:56;;;;;;;3.40;2.47;;;25.00;99.90;;;;;;5043600;28;20639;-77
2023/07/29 12:50:26;;;;;;;3.27;2.30;;;24.80;99.90;;;;;;5053308;28;20283;-78
2023/07/29 12:52:54;;;;;;;4.30;2.63;;;24.60;99.90;;;;;;5042091;28;20209;-77
2023/07/29 12:55:23;;;;;;;6.07;2.67;;;24.70;99.90;;;;;;5033024;28;20219;-78